Hovedside
METAR-TAF:

METAR-TAF

Lufthavner :

Jämsä, Finland

Halli lufthavn

breddegrad: 61-51N, lengdegrad: 024-48E, høyde over havet: 143 m

Gjeldene værobservasjon

Denne rapporten ble laget for 17 minutter siden, klokken 05:50 UTC
Vind 10 kt fra Vest
Temperatur -3°C
Luftfuktighet 74%
Trykk 1017 hPa
Sikt 10 km eller mer
ingen skyer under 1500 m og ingen bygeskyer

METAR: EFHA 240550Z AUTO 28010KT CAVOK M03/M07 Q1017

Tid: 08:07 (06:07 UTC)

Varsel

Denne rapporten ble laget for 37 minutter siden, klokken 05:30 UTC
Varsel gyldig fra 24. klokken 06 UTC til 24. klokken 15 UTC
Vind 9 kt fra Vest
Sikt 10 km eller mer
ingen skyer under 1500 m og ingen bygeskyer
Sannsynlighet 30% :
Midlertidig
fra 24. klokken 08 UTC til 24. klokken 15 UTC
Vind 15 kt fra Vest-nordvest med vindkast opp mot 25 kt
Få skyer i en høyde av 4000 ft, Bygeskyer.

TAF: EFHA 240530Z 2406/2415 28009KT CAVOK PROB30 TEMPO 2408/2415 30015G25KT FEW040CB

Værobservasjoner og værvarsel for over 4000 flyplasser (METAR- og TAF-rapporter).

Tilgjengelige stasjoner er representert av de røde og gule prikkene på kartet.

Hold musepekeren over prikken for å se navnet på stasjonen.

Klikk så for å se værobservasjoner og -varsler.

For å forandre kartet kan du klikke på den grønne knappen med svart kryss for å zoome inn, på den grønne knappen med strek for å zoome ut, eller på de grønne pilene for å se tilstøtende kart.


METAR-TAF: